Apple Grove, WV

1:47 AM EST on November 28, 2014 (GMT -0500)
The Linde Farm in Ashton | Change Station
CLOSE
Current Station
Personal Weather Station
Location: Ashton, WV
Elevation: 692 ft
Nearby Weather Stations

Elev 692 ft 38.58 °N, 82.08 °W | Updated 12 minutes ago

Overcast
Overcast
30.7 °F
Feels Like 31 °F
N
0.0
Wind Variable Wind from SW

Today
High -- | Low -- °F
--% Chance of Precip.
Yesterday
High -- | Low -- °F
Precip. -- in
7:24 AM 5:08 PM
Waxing Crescent, 37% visible
Pressure 30.37 in
Visibility 10.0 miles
Clouds Overcast 5000 ft
Windchill 31 °F
Dew Point 28 °F
Humidity 88%
Rainfall 0.00 in
Snow Depth Not available.
UV 0 out of 12
Pollen .10 out of 12
Air Quality Not available.
Flu Activity Not available.
METAR K3I2 280635Z AUTO 29004KT 10SM OVC050 00/M06 A3037 RMK AO2

More Conditions Fewer Conditions

Pressure 30.37 in
Visibility 10.0 miles
Clouds Overcast 5000 ft
Windchill 31 °F
Dew Point 28 °F
Humidity 88%
Rainfall 0.00 in
Snow Depth Not available.
UV 0 out of 12
Pollen .10 out of 12
Air Quality Not available.
Flu Activity Not available.
METAR K3I2 280635Z AUTO 29004KT 10SM OVC050 00/M06 A3037 RMK AO2

More Conditions Fewer Conditions

10-Day Weather Forecast

Almanac

Astronomy

Nov. 28, 2014 Rise Set
Actual Time
Civil Twilight
Nautical Twilight
Astronomical Twilight
Moon
Length of Visible Light
Length of Day
Tomorrow will be .
, % of the Moon is Illuminated

Today's Extremes

State Highs State Lows

Community

WunderPhotos

Upload Photos

1,774,194 photos uploaded!

WunderBlogs® & News

Nearby

Air Quality

  Air Quality AQ Index Pollutant
Not available.

Snow Depth

Station Depth Elevation

Earthquake Activity

City Distance Mag. Time & Date
Minimum magnitude displayed is 2.5.

Coastal Water Temperatures

Place Temperature

Nearby Weather Stations